Time;durP1;ratioP1;P1;durP2;ratioP2;P2;SDS_P1;SDS_P2;PMS_P1;PMS_P2;Temp;Humidity;BMP_temperature;BMP_pressure;BME280_temperature;BME280_humidity;BME280_pressure;Samples;Min_cycle;Max_cycle;Signal;HPM_P1;HPM_P2
2022/11/29 00:01:22;;;;;;;101.18;40.22;;;6.70;99.90;;;5.58;100.00;97035.66;5091352;28;20414;-73
2022/11/29 00:03:48;;;;;;;142.40;42.20;;;6.70;99.90;;;5.56;100.00;97035.91;5090633;28;20402;-74
2022/11/29 00:06:17;;;;;;;108.68;37.25;;;6.70;99.90;;;5.59;100.00;97032.00;5090327;28;20425;-74
2022/11/29 00:08:44;;;;;;;139.55;42.50;;;6.70;99.90;;;5.61;100.00;97032.56;5091412;28;20398;-76
2022/11/29 00:11:12;;;;;;;126.88;40.35;;;6.70;99.90;;;5.59;100.00;97040.66;5091246;28;20390;-74
2022/11/29 00:13:39;;;;;;;141.82;43.33;;;6.70;99.90;;;5.58;100.00;97035.66;5090448;28;20406;-74
2022/11/29 00:16:10;;;;;;;97.43;34.33;;;6.70;99.90;;;5.59;100.00;97035.41;5091282;28;20475;-74
2022/11/29 00:18:36;;;;;;;122.20;40.90;;;6.70;99.90;;;5.58;100.00;97035.66;5091367;28;20429;-74
2022/11/29 00:21:05;;;;;;;107.32;37.33;;;6.70;99.90;;;5.58;100.00;97030.38;5090948;28;20405;-74
2022/11/29 00:23:31;;;;;;;107.83;39.23;;;6.70;99.90;;;5.56;100.00;97035.09;5090329;28;20810;-74
2022/11/29 00:26:03;;;;;;;108.28;38.72;;;6.60;99.90;;;5.59;100.00;97032.00;5091074;28;20402;-74
2022/11/29 00:28:28;;;;;;;121.13;39.78;;;6.60;99.90;;;5.55;100.00;97026.41;5091017;28;20394;-74
2022/11/29 00:30:54;;;;;;;139.68;41.42;;;6.60;99.90;;;5.56;100.00;97021.97;5091094;28;20906;-74
2022/11/29 00:33:22;;;;;;;141.85;43.95;;;6.60;99.90;;;5.56;100.00;97032.47;5090089;28;20409;-74
2022/11/29 00:35:47;;;;;;;131.07;41.22;;;6.70;99.90;;;5.56;100.00;97035.09;5090869;28;20515;-74
2022/11/29 00:38:13;;;;;;;132.82;38.05;;;6.70;99.90;;;5.58;100.00;97027.75;5091053;28;20402;-74
2022/11/29 00:40:39;;;;;;;162.03;38.13;;;6.60;99.90;;;5.57;100.00;97029.59;5090722;28;20911;-74
2022/11/29 00:43:05;;;;;;;112.72;34.60;;;6.70;99.90;;;5.58;100.00;97036.44;5089910;28;20406;-74
2022/11/29 00:45:31;;;;;;;139.20;40.55;;;6.70;99.90;;;5.57;100.00;97036.66;5090752;28;20397;-74
2022/11/29 00:47:57;;;;;;;89.03;32.00;;;6.70;99.90;;;5.59;100.00;97030.16;5090803;28;20401;-74
2022/11/29 00:50:24;;;;;;;134.88;36.67;;;6.70;99.90;;;5.60;100.00;97030.97;5090433;28;20402;-75
2022/11/29 00:52:50;;;;;;;144.48;43.05;;;6.70;99.90;;;5.58;100.00;97031.19;5089696;28;20398;-74
2022/11/29 00:55:16;;;;;;;136.95;41.38;;;6.70;99.90;;;5.56;100.00;97033.28;5090662;28;20547;-74
2022/11/29 00:57:42;;;;;;;113.53;35.45;;;6.70;99.90;;;5.56;100.00;97029.84;5090435;28;20921;-74
2022/11/29 01:00:09;;;;;;;130.75;37.35;;;6.60;99.90;;;5.54;100.00;97030.06;5090374;28;20488;-74
2022/11/29 01:02:35;;;;;;;174.40;37.35;;;6.60;99.90;;;5.54;100.00;97037.94;5072341;28;20768;-74
2022/11/29 01:05:02;;;;;;;127.45;40.42;;;6.70;99.90;;;5.55;100.00;97041.38;5089736;28;20402;-75
2022/11/29 01:07:29;;;;;;;132.07;39.95;;;6.60;99.90;;;5.54;100.00;97039.75;5090398;28;20390;-75
2022/11/29 01:09:55;;;;;;;137.63;36.25;;;6.60;99.90;;;5.53;100.00;97033.72;5090327;28;20419;-75
2022/11/29 01:12:21;;;;;;;134.68;37.40;;;6.60;99.90;;;5.52;100.00;97037.34;5090081;28;20433;-75
2022/11/29 01:14:47;;;;;;;139.63;34.58;;;6.60;99.90;;;5.52;100.00;97044.44;5089415;28;20398;-75
2022/11/29 01:17:13;;;;;;;150.20;36.05;;;6.60;99.90;;;5.51;100.00;97042.84;5089784;28;20410;-74
2022/11/29 01:19:39;;;;;;;92.38;30.45;;;6.60;99.90;;;5.56;100.00;97048.22;5090100;28;20397;-75
2022/11/29 01:22:05;;;;;;;135.63;37.38;;;6.60;99.90;;;5.53;100.00;97043.41;5089954;28;20493;-75
2022/11/29 01:24:32;;;;;;;120.60;31.93;;;6.60;99.90;;;5.54;100.00;97047.63;5089163;28;20419;-75
2022/11/29 01:26:58;;;;;;;167.63;39.25;;;6.60;99.90;;;5.52;100.00;97047.84;5090131;28;20485;-75
2022/11/29 01:29:24;;;;;;;104.33;36.50;;;6.60;99.90;;;5.50;100.00;97046.47;5089952;28;20472;-75
2022/11/29 01:31:50;;;;;;;124.18;40.03;;;6.60;99.90;;;5.49;100.00;97040.44;5089803;28;20488;-76
2022/11/29 01:34:16;;;;;;;97.63;34.42;;;6.60;99.90;;;5.49;100.00;97050.16;5089298;28;20425;-74
2022/11/29 01:36:41;;;;;;;86.30;32.37;;;6.60;99.90;;;5.47;100.00;97047.75;5089982;28;20976;-74
2022/11/29 01:39:07;;;;;;;115.40;35.53;;;6.60;99.90;;;5.49;100.00;97043.06;5088532;28;20402;-73
2022/11/29 01:41:36;;;;;;;119.70;34.13;;;6.60;99.90;;;5.50;100.00;97047.28;5089632;28;20489;-74
2022/11/29 01:44:06;;;;;;;144.20;35.38;;;6.60;99.90;;;5.51;100.00;97048.09;5089180;28;20763;-74
2022/11/29 01:46:34;;;;;;;157.03;34.50;;;6.60;99.90;;;5.51;100.00;97040.19;5089828;28;20396;-74
2022/11/29 01:49:06;;;;;;;136.05;32.90;;;6.60;99.90;;;5.52;100.00;97040.00;5089796;28;20399;-74
2022/11/29 01:51:34;;;;;;;143.50;36.77;;;6.60;99.90;;;5.52;100.00;97042.59;5089793;28;20409;-75
2022/11/29 01:54:01;;;;;;;151.82;33.65;;;6.60;99.90;;;5.52;100.00;97040.00;5087664;28;20402;-74
2022/11/29 01:56:29;;;;;;;126.82;30.23;;;6.60;99.90;;;5.54;100.00;97039.75;5089771;28;20417;-75
2022/11/29 01:58:56;;;;;;;143.13;31.05;;;6.60;99.90;;;5.55;100.00;97036.13;5090090;28;20442;-75
2022/11/29 02:01:22;;;;;;;74.68;25.35;;;6.60;99.90;;;5.61;100.00;97049.13;5089526;28;20455;-75
2022/11/29 02:03:48;;;;;;;145.35;33.33;;;6.70;99.90;;;5.60;100.00;97044.09;5088623;28;20447;-75
2022/11/29 02:06:15;;;;;;;74.47;27.55;;;6.70;99.90;;;5.61;100.00;97043.06;5088464;28;20893;-75
2022/11/29 02:08:42;;;;;;;94.38;32.70;;;6.70;99.90;;;5.59;100.00;97042.50;5089693;28;20528;-75
2022/11/29 02:11:33;;;;;;;108.65;28.90;;;6.70;99.90;;;5.58;100.00;97040.91;5089449;28;20393;-75
2022/11/29 02:14:20;;;;;;;83.30;26.73;;;6.70;99.90;;;5.59;100.00;97045.13;5088716;28;20397;-75
2022/11/29 02:16:56;;;;;;;71.47;26.40;;;6.70;99.90;;;5.60;100.00;97042.28;5089476;28;20413;-75
2022/11/29 02:19:52;;;;;;;80.63;26.98;;;6.70;99.90;;;5.59;100.00;97045.94;5089550;28;20409;-75
2022/11/29 02:22:23;;;;;;;79.78;24.83;;;6.70;99.90;;;5.60;100.00;97044.09;5089482;28;21002;-75
2022/11/29 02:25:22;;;;;;;61.75;23.63;;;6.70;99.90;;;5.60;100.00;97046.72;5088665;28;20394;-74
2022/11/29 02:28:42;;;;;;;63.08;25.27;;;6.70;99.90;;;5.57;100.00;97045.34;5089610;28;20447;-74
2022/11/29 02:32:05;;;;;;;70.80;23.92;;;6.70;99.90;;;5.58;100.00;97041.69;5093242;28;20539;-75
2022/11/29 02:34:55;;;;;;;75.13;23.20;;;6.70;99.90;;;5.59;100.00;97047.75;5092593;28;20408;-75
2022/11/29 02:37:46;;;;;;;54.60;20.30;;;6.70;99.90;;;5.61;100.00;97048.31;5093289;28;20531;-74
2022/11/29 02:41:12;;;;;;;67.00;20.25;;;6.70;99.90;;;5.62;100.00;97048.09;5093062;28;20409;-74
2022/11/29 02:44:21;;;;;;;67.53;20.55;;;6.70;99.90;;;5.63;100.00;97039.22;5074312;28;20412;-75
2022/11/29 02:47:06;;;;;;;63.92;21.00;;;6.70;99.90;;;5.63;100.00;97044.47;5093175;28;20390;-74
2022/11/29 02:49:58;;;;;;;85.50;23.52;;;6.70;99.90;;;5.62;100.00;97042.84;5093066;28;20402;-74
2022/11/29 02:52:40;;;;;;;57.40;20.40;;;6.70;99.90;;;5.61;100.00;97054.38;5093017;28;20493;-74
2022/11/29 02:55:14;;;;;;;58.90;20.43;;;6.70;99.90;;;5.61;100.00;97050.94;5093079;28;20910;-74
2022/11/29 02:57:49;;;;;;;65.53;20.20;;;6.70;99.90;;;5.61;100.00;97045.69;5093120;28;20420;-74
2022/11/29 03:00:19;;;;;;;63.10;19.87;;;6.70;99.90;;;5.61;100.00;97051.75;5093023;28;20433;-74
2022/11/29 03:02:56;;;;;;;67.50;20.97;;;6.70;99.90;;;5.61;100.00;97051.75;5095389;28;20482;-74
2022/11/29 03:05:39;;;;;;;76.70;23.50;;;6.70;99.90;;;5.61;100.00;97048.31;5095681;28;20437;-75
2022/11/29 03:08:12;;;;;;;69.78;22.65;;;6.70;99.90;;;5.60;100.00;97052.78;5094407;28;20406;-74
2022/11/29 03:10:49;;;;;;;80.05;22.80;;;6.70;99.90;;;5.60;100.00;97059.84;5092624;28;20394;-74
2022/11/29 03:13:24;;;;;;;64.10;20.10;;;6.70;99.90;;;5.61;100.00;97053.59;5091919;28;20390;-74
2022/11/29 03:16:01;;;;;;;55.37;18.57;;;6.70;99.90;;;5.61;100.00;97051.75;5092683;28;20405;-74
2022/11/29 03:18:37;;;;;;;72.32;20.27;;;6.70;99.90;;;5.64;100.00;97058.38;5092708;28;20409;-74
2022/11/29 03:21:16;;;;;;;93.32;24.58;;;6.70;99.90;;;5.65;100.00;97062.59;5092448;28;20413;-74
2022/11/29 03:23:47;;;;;;;90.05;21.98;;;6.70;99.90;;;5.66;100.00;97067.63;5090312;28;20447;-74
2022/11/29 03:26:17;;;;;;;84.57;21.67;;;6.70;99.90;;;5.67;100.00;97063.16;5092466;28;20452;-74
2022/11/29 03:28:52;;;;;;;109.32;26.95;;;6.80;99.90;;;5.67;100.00;97068.41;5092412;28;20398;-74
2022/11/29 03:31:25;;;;;;;78.07;21.83;;;6.80;99.90;;;5.66;100.00;97070.25;5092355;28;20398;-74
2022/11/29 03:34:07;;;;;;;97.32;24.60;;;6.70;99.90;;;5.67;100.00;97073.66;5091916;28;20467;-74
2022/11/29 03:36:44;;;;;;;79.60;21.17;;;6.70;99.90;;;5.66;100.00;97072.06;5090903;28;20885;-75
2022/11/29 03:39:19;;;;;;;92.65;23.02;;;6.70;99.90;;;5.65;100.00;97068.63;5091866;28;20390;-74
2022/11/29 03:41:52;;;;;;;96.10;23.55;;;6.70;99.90;;;5.65;100.00;97071.25;5091995;28;20481;-75
2022/11/29 03:44:23;;;;;;;113.88;25.42;;;6.70;99.90;;;5.65;100.00;97071.25;5091281;28;20394;-74
2022/11/29 03:46:57;;;;;;;84.88;21.25;;;6.70;99.90;;;5.66;100.00;97072.88;5092022;28;20482;-75
2022/11/29 03:49:31;;;;;;;93.97;23.15;;;6.70;99.90;;;5.67;100.00;97068.41;5091756;28;20456;-74
2022/11/29 03:52:14;;;;;;;63.78;19.52;;;6.70;99.90;;;5.67;100.00;97071.03;5091885;28;20750;-74
2022/11/29 03:54:52;;;;;;;97.82;24.88;;;6.70;99.90;;;5.66;100.00;97080.75;5091098;28;20428;-74
2022/11/29 03:57:29;;;;;;;80.40;23.30;;;6.70;99.90;;;5.66;100.00;97075.50;5092038;28;20420;-74
2022/11/29 04:00:03;;;;;;;62.37;21.10;;;6.70;99.90;;;5.67;100.00;97078.91;5091625;28;20409;-74
2022/11/29 04:03:06;;;;;;;76.70;22.63;;;6.70;99.90;;;5.68;100.00;97081.31;5091592;28;20401;-74
2022/11/29 04:06:12;;;;;;;67.07;19.80;;;6.80;99.90;;;5.71;100.00;97080.09;5091709;28;20444;-74
2022/11/29 04:09:33;;;;;;;62.75;21.08;;;6.80;99.90;;;5.74;100.00;97079.59;5091712;28;20958;-74
2022/11/29 04:12:47;;;;;;;52.63;16.10;;;6.80;99.90;;;5.74;100.00;97077.78;5091569;28;20398;-74
2022/11/29 04:15:54;;;;;;;62.13;19.75;;;6.80;99.90;;;5.75;100.00;97078.59;5091305;28;20879;-74
2022/11/29 04:19:07;;;;;;;54.03;16.35;;;6.80;99.90;;;5.75;100.00;97086.47;5089075;28;20428;-74
2022/11/29 04:22:06;;;;;;;42.70;14.43;;;6.80;99.90;;;5.76;100.00;97083.63;5091252;28;20410;-74
2022/11/29 04:25:22;;;;;;;53.92;17.08;;;6.80;99.90;;;5.76;100.00;97091.50;5090402;28;20405;-74
2022/11/29 04:28:17;;;;;;;31.70;12.45;;;6.80;99.90;;;5.78;100.00;97096.53;5089908;28;20552;-74
2022/11/29 04:30:58;;;;;;;28.40;11.95;;;6.90;99.90;;;5.75;100.00;97100.41;5054347;28;20412;-74
2022/11/29 04:33:55;;;;;;;31.70;11.50;;;6.80;99.90;;;5.74;100.00;97092.75;5090365;28;20398;-74
2022/11/29 04:36:54;;;;;;;23.80;9.70;;;6.80;99.90;;;5.79;100.00;97092.84;5090684;28;20782;-74
2022/11/29 04:39:47;;;;;;;33.17;10.53;;;6.80;99.90;;;5.79;100.00;97096.28;5090938;28;20409;-74
2022/11/29 04:42:48;;;;;;;39.20;10.50;;;6.90;99.90;;;5.80;100.00;97097.88;5090999;28;20451;-74
2022/11/29 04:45:57;;;;;;;26.52;10.45;;;6.90;99.90;;;5.80;100.00;97102.34;5090925;28;20393;-74
2022/11/29 04:48:50;;;;;;;28.92;9.93;;;6.90;99.90;;;5.80;100.00;97103.13;5086382;28;20430;-74
2022/11/29 04:51:30;;;;;;;26.27;9.65;;;6.90;99.90;;;5.82;100.00;97108.97;5103315;22;20475;-74
2022/11/29 04:54:07;;;;;;;22.23;8.93;;;6.90;99.90;;;5.85;100.00;97107.72;5088936;28;20394;-75
2022/11/29 04:56:42;;;;;;;37.47;10.50;;;6.90;99.90;;;5.84;100.00;97109.53;5088203;28;20770;-75
2022/11/29 04:59:16;;;;;;;29.47;9.67;;;6.90;99.90;;;5.84;100.00;97114.00;5090297;28;20397;-75
2022/11/29 05:01:57;;;;;;;25.23;9.20;;;6.90;99.90;;;5.86;100.00;97119.03;5083210;28;20583;-75
2022/11/29 05:04:30;;;;;;;28.33;9.57;;;6.90;99.90;;;5.87;100.00;97115.34;5079212;28;20761;-75
2022/11/29 05:07:05;;;;;;;24.98;9.20;;;7.00;99.90;;;5.88;100.00;97117.00;5078681;28;20400;-75
2022/11/29 05:09:51;;;;;;;27.30;9.82;;;7.00;99.90;;;5.88;100.00;97117.00;5079850;28;20392;-76
2022/11/29 05:12:31;;;;;;;29.50;10.43;;;7.00;99.90;;;5.86;100.00;97119.03;5077957;28;20415;-74
2022/11/29 05:15:24;;;;;;;33.13;10.80;;;6.90;99.90;;;5.86;100.00;97114.56;5082174;28;20500;-74
2022/11/29 05:18:03;;;;;;;30.15;9.75;;;6.90;99.90;;;5.86;100.00;97119.84;5079483;28;20419;-73
2022/11/29 05:20:42;;;;;;;39.15;11.20;;;7.00;99.90;;;5.86;100.00;97124.28;5078475;28;20487;-75
2022/11/29 05:23:28;;;;;;;38.22;10.50;;;6.90;99.90;;;5.85;100.00;97120.84;5077947;28;20400;-75
2022/11/29 05:26:01;;;;;;;44.35;11.75;;;6.90;99.90;;;5.86;100.00;97132.16;5079323;28;20411;-75
2022/11/29 05:28:40;;;;;;;24.20;9.95;;;6.90;99.90;;;5.84;100.00;97125.31;5087461;28;20779;-75
2022/11/29 05:31:36;;;;;;;31.00;10.88;;;6.90;99.90;;;5.83;100.00;97136.03;5089983;28;20397;-76
2022/11/29 05:34:48;;;;;;;27.88;9.50;;;6.90;99.90;;;5.84;100.00;97132.38;5089402;28;20398;-76
2022/11/29 05:37:30;;;;;;;24.08;9.15;;;6.90;99.90;;;5.84;100.00;97127.94;5086679;28;20422;-76
2022/11/29 05:40:20;;;;;;;38.03;12.18;;;6.90;99.90;;;5.86;100.00;97134.78;5080248;28;20411;-75
2022/11/29 05:43:05;;;;;;;28.98;10.40;;;7.00;99.90;;;5.85;100.00;97128.75;5077016;28;20414;-76
2022/11/29 05:45:42;;;;;;;23.77;9.23;;;6.90;99.90;;;5.88;100.00;97132.75;5078866;28;20418;-76
2022/11/29 05:48:18;;;;;;;37.80;11.25;;;7.00;99.90;;;5.88;100.00;97132.75;5077307;28;20442;-76
2022/11/29 05:50:49;;;;;;;25.35;10.00;;;7.00;99.90;;;5.88;100.00;97138.00;5082541;28;20405;-76
2022/11/29 05:53:23;;;;;;;32.38;11.15;;;6.90;99.90;;;5.87;100.00;97141.63;5089126;28;20445;-76
2022/11/29 05:55:59;;;;;;;30.55;10.90;;;7.00;99.90;;;5.88;100.00;97145.88;5087178;28;20947;-73
2022/11/29 05:58:42;;;;;;;34.25;11.23;;;7.00;99.90;;;5.88;100.00;97148.50;5078446;28;20769;-73
2022/11/29 06:01:21;;;;;;;29.42;10.80;;;7.00;99.90;;;5.88;100.00;97151.94;5080139;28;20402;-72
2022/11/29 06:03:57;;;;;;;26.85;9.82;;;7.00;99.90;;;5.92;100.00;97150.47;5082076;28;20754;-73
2022/11/29 06:06:34;;;;;;;34.88;11.35;;;7.00;99.90;;;5.89;100.00;97145.66;5079285;28;20411;-74
2022/11/29 06:09:09;;;;;;;34.88;11.43;;;7.00;99.90;;;5.90;100.00;97154.34;5074107;28;20487;-73
2022/11/29 06:11:41;;;;;;;29.98;11.45;;;7.00;99.90;;;5.91;100.00;97148.88;5073522;28;20391;-73
2022/11/29 06:14:24;;;;;;;30.92;11.35;;;7.00;99.90;;;5.92;100.00;97154.94;5077316;28;20861;-74
2022/11/29 06:17:24;;;;;;;31.73;12.27;;;7.00;99.90;;;5.90;100.00;97162.22;5083048;28;20795;-74
2022/11/29 06:20:18;;;;;;;43.50;13.95;;;7.00;99.90;;;5.88;100.00;97162.44;5083151;28;20947;-74
2022/11/29 06:23:04;;;;;;;32.53;10.93;;;7.00;99.90;;;5.88;100.00;97162.44;5083469;28;20404;-74
2022/11/29 06:25:54;;;;;;;40.63;12.63;;;7.00;99.90;;;5.88;100.00;97164.25;5083344;28;20392;-74
2022/11/29 06:28:35;;;;;;;37.83;12.40;;;7.00;99.90;;;5.89;100.00;97164.03;5084662;28;20446;-74
2022/11/29 06:31:10;;;;;;;34.83;13.70;;;7.00;99.90;;;5.90;100.00;97175.34;5081553;28;20427;-74
2022/11/29 06:33:47;;;;;;;43.20;12.98;;;7.00;99.90;;;5.90;100.00;97172.72;5080926;28;20438;-74
2022/11/29 06:36:18;;;;;;;35.38;12.05;;;7.00;99.90;;;5.90;100.00;97175.34;5082238;28;20473;-74
2022/11/29 06:38:44;;;;;;;33.97;12.52;;;7.00;99.90;;;5.94;100.00;97173.91;5073010;28;20893;-73
2022/11/29 06:41:18;;;;;;;46.42;13.75;;;7.00;99.90;;;5.92;100.00;97175.94;5072908;28;20407;-74
2022/11/29 06:43:45;;;;;;;34.92;12.32;;;7.00;99.90;;;5.94;100.00;97173.91;5072088;28;20411;-74
2022/11/29 06:46:22;;;;;;;35.33;12.45;;;7.00;99.90;;;5.94;100.00;97181.78;5073945;28;20403;-74
2022/11/29 06:49:00;;;;;;;47.88;13.85;;;7.00;99.90;;;5.93;100.00;97180.97;5093073;28;20394;-74
2022/11/29 06:51:34;;;;;;;45.33;13.82;;;7.00;99.90;;;5.93;100.00;97182.81;5093099;28;20816;-76
2022/11/29 06:54:18;;;;;;;35.47;12.95;;;7.00;99.90;;;5.93;100.00;97180.97;5091443;28;20394;-76
2022/11/29 06:56:53;;;;;;;33.53;11.50;;;7.00;99.90;;;5.95;100.00;97199.91;5089051;28;20475;-73
2022/11/29 06:59:39;;;;;;;40.43;12.63;;;7.00;99.90;;;5.96;100.00;97187.59;5089303;28;20469;-74
2022/11/29 07:02:26;;;;;;;46.15;12.63;;;7.00;99.90;;;5.96;100.00;97193.63;5072448;28;20403;-74
2022/11/29 07:05:09;;;;;;;37.90;13.73;;;7.00;99.90;;;5.97;100.00;97189.19;5076964;28;20403;-74
2022/11/29 07:07:36;;;;;;;42.53;13.95;;;7.00;99.90;;;5.96;100.00;97198.91;5075307;28;20396;-74
2022/11/29 07:10:05;;;;;;;41.50;14.20;;;7.00;99.90;;;5.95;100.00;97199.91;5072341;28;20761;-74
2022/11/29 07:12:32;;;;;;;28.57;12.63;;;7.00;99.90;;;6.02;100.00;97205.88;5072312;28;20400;-73
2022/11/29 07:14:59;;;;;;;33.88;12.60;;;7.10;99.90;;;6.02;100.00;97207.69;5071024;28;20423;-73
2022/11/29 07:17:33;;;;;;;48.75;13.88;;;7.10;99.90;;;5.99;100.00;97205.53;5072130;28;20495;-73
2022/11/29 07:20:09;;;;;;;37.97;12.52;;;7.10;99.90;;;5.98;100.00;97207.34;5073981;28;20388;-72
2022/11/29 07:22:54;;;;;;;28.17;10.85;;;7.10;99.90;;;6.03;100.00;97214.53;5093568;28;20397;-72
2022/11/29 07:25:35;;;;;;;42.08;13.73;;;7.10;99.90;;;5.99;100.00;97213.41;5090769;28;20434;-69
2022/11/29 07:28:15;;;;;;;41.45;13.55;;;7.10;99.90;;;5.99;100.00;97224.72;5084683;28;20451;-70
2022/11/29 07:30:49;;;;;;;58.70;14.82;;;7.10;99.90;;;6.00;100.00;97223.69;5083536;28;20550;-71
2022/11/29 07:33:22;;;;;;;30.57;11.77;;;7.10;99.90;;;6.04;100.00;97224.03;5092047;28;20935;-76
2022/11/29 07:36:08;;;;;;;36.17;14.05;;;7.10;99.90;;;6.01;100.00;97219.25;5093893;28;20406;-75
2022/11/29 07:38:51;;;;;;;31.40;12.65;;;7.10;99.90;;;6.02;100.00;97218.19;5094886;28;20410;-75
2022/11/29 07:41:25;;;;;;;37.57;13.10;;;7.10;99.90;;;6.02;100.00;97220.81;5091536;28;20933;-75
2022/11/29 07:43:59;;;;;;;35.88;12.13;;;7.10;99.90;;;6.03;100.00;97212.72;5091623;28;20402;-75
2022/11/29 07:46:27;;;;;;;44.08;13.80;;;7.10;99.90;;;6.03;100.00;97220.59;5098219;28;20405;-76
2022/11/29 07:48:53;;;;;;;38.08;13.20;;;7.10;99.90;;;6.07;100.00;97221.78;5088959;28;20394;-77
2022/11/29 07:51:21;;;;;;;28.52;13.35;;;7.10;99.90;;;6.12;100.00;97227.13;5091022;28;20416;-73
2022/11/29 07:53:47;;;;;;;38.58;12.93;;;7.20;99.90;;;6.13;100.00;97228.75;5090616;28;20891;-74
2022/11/29 07:56:15;;;;;;;38.83;13.55;;;7.20;99.90;;;6.12;100.00;97234.22;5086856;28;20403;-75
2022/11/29 07:58:41;;;;;;;42.25;13.02;;;7.20;99.90;;;6.10;100.00;97234.44;5087055;28;20398;-75
2022/11/29 08:01:07;;;;;;;41.38;13.70;;;7.20;99.90;;;6.10;100.00;97234.44;5091285;28;20406;-74
2022/11/29 08:03:34;;;;;;;29.77;11.70;;;7.20;99.90;;;6.11;100.00;97232.63;5085990;28;20867;-73
2022/11/29 08:06:00;;;;;;;41.30;13.05;;;7.20;99.90;;;6.13;100.00;97233.19;5090126;28;20802;-76
2022/11/29 08:08:28;;;;;;;36.20;12.77;;;7.20;99.90;;;6.15;100.00;97237.22;5089926;28;20481;-77
2022/11/29 08:10:54;;;;;;;27.27;11.55;;;7.20;99.90;;;6.18;100.00;97238.56;5091003;28;20398;-77
2022/11/29 08:13:20;;;;;;;33.38;12.98;;;7.20;99.90;;;6.19;100.00;97233.09;5090612;28;20847;-76
2022/11/29 08:15:47;;;;;;;33.73;12.10;;;7.30;99.90;;;6.19;100.00;97238.34;5090440;28;20394;-77
2022/11/29 08:18:14;;;;;;;37.10;14.82;;;7.30;99.90;;;6.20;100.00;97241.78;5090072;28;20406;-79
2022/11/29 08:20:40;;;;;;;39.70;13.52;;;7.20;99.90;;;6.21;100.00;97238.94;5090068;28;20409;-76
2022/11/29 08:23:08;;;;;;;27.92;12.13;;;7.30;99.90;;;6.24;100.00;97240.28;5090346;28;20397;-76
2022/11/29 08:25:36;;;;;;;36.80;13.48;;;7.30;99.90;;;6.19;100.00;97240.97;5090367;28;20467;-80
2022/11/29 08:28:03;;;;;;;45.92;15.27;;;7.30;99.90;;;6.22;100.00;97242.38;5088775;28;20410;-77
2022/11/29 08:30:29;;;;;;;39.33;13.88;;;7.30;99.90;;;6.19;100.00;97248.06;5091172;28;20463;-78
2022/11/29 08:32:55;;;;;;;40.95;13.90;;;7.20;99.90;;;6.21;100.00;97257.31;5090626;28;20959;-74
2022/11/29 08:35:22;;;;;;;41.42;14.85;;;7.30;99.90;;;6.21;100.00;97253.91;5090963;28;20438;-73
2022/11/29 08:37:49;;;;;;;42.27;14.90;;;7.30;99.90;;;6.24;100.00;97253.44;5090759;28;20468;-74
2022/11/29 08:40:16;;;;;;;43.63;15.05;;;7.30;99.90;;;6.23;100.00;97259.72;5090738;28;20394;-73
2022/11/29 08:42:43;;;;;;;51.03;15.98;;;7.30;99.90;;;6.24;100.00;97260.53;5090171;28;20442;-73
2022/11/29 08:45:11;;;;;;;41.70;14.90;;;7.30;99.90;;;6.18;100.00;97257.78;5090495;28;20866;-73
2022/11/29 08:47:37;;;;;;;46.83;14.55;;;7.30;99.90;;;6.17;100.00;97264.03;5089799;28;20757;-74
2022/11/29 08:50:08;;;;;;;44.10;14.67;;;7.20;99.90;;;6.17;100.00;97261.41;5075528;28;20436;-72
2022/11/29 08:55:25;;;;;;;48.83;15.65;;;7.30;99.90;;;6.19;100.00;97261.19;5077816;28;20492;-73
2022/11/29 08:57:58;;;;;;;48.28;14.90;;;7.30;99.90;;;6.21;100.00;97262.59;5083482;28;20454;-73
2022/11/29 09:00:24;;;;;;;39.50;13.07;;;7.30;99.90;;;6.25;100.00;97259.47;5088246;28;20417;-72
2022/11/29 09:02:50;;;;;;;36.17;12.65;;;7.30;99.90;;;6.25;100.00;97262.13;5080480;28;20493;-73
2022/11/29 09:05:16;;;;;;;42.10;14.23;;;7.30;99.90;;;6.25;100.00;97268.16;5090312;28;20953;-72
2022/11/29 09:07:42;;;;;;;33.87;13.53;;;7.30;99.90;;;6.25;100.00;97270.00;5097015;28;20454;-75
2022/11/29 09:10:10;;;;;;;36.33;13.55;;;7.30;99.90;;;6.29;100.00;97269.34;5078534;28;20404;-73
2022/11/29 09:12:37;;;;;;;39.05;13.60;;;7.30;99.90;;;6.31;100.00;97277.81;5104746;28;20807;-73
2022/11/29 09:15:07;;;;;;;50.33;14.75;;;7.40;99.90;;;6.33;100.00;97282.81;5068628;28;20407;-74
2022/11/29 09:17:33;;;;;;;40.63;15.15;;;7.40;99.90;;;6.36;100.00;97287.63;5085134;28;20417;-75
2022/11/29 09:19:59;;;;;;;61.27;17.23;;;7.40;99.90;;;6.34;100.00;97282.59;5089991;28;20543;-72
2022/11/29 09:22:25;;;;;;;59.20;17.52;;;7.40;99.90;;;6.37;100.00;97281.34;5090349;28;20406;-73
2022/11/29 09:24:51;;;;;;;76.60;21.38;;;7.40;99.90;;;6.31;100.00;97290.94;5087934;28;20772;-70
2022/11/29 09:27:17;;;;;;;65.53;18.70;;;7.40;99.90;;;6.34;100.00;97289.69;5090184;28;20394;-72
2022/11/29 09:29:43;;;;;;;62.92;19.55;;;7.30;99.90;;;6.32;100.00;97292.53;5089744;28;20406;-72
2022/11/29 09:32:10;;;;;;;76.80;20.88;;;7.40;99.90;;;6.34;100.00;97293.09;5089837;28;20759;-73
2022/11/29 09:34:36;;;;;;;66.45;19.52;;;7.40;99.90;;;6.37;100.00;97299.75;5088958;28;20398;-72
2022/11/29 09:37:08;;;;;;;65.63;18.75;;;7.40;99.90;;;6.38;100.00;97293.47;5080145;28;20416;-72
2022/11/29 09:39:35;;;;;;;71.05;19.40;;;7.40;99.90;;;6.40;100.00;97299.28;5080696;28;20940;-75
2022/11/29 09:42:23;;;;;;;70.80;19.27;;;7.50;99.90;;;6.43;100.00;97298.84;5082522;28;20425;-75
2022/11/29 09:45:02;;;;;;;72.75;19.00;;;7.50;99.90;;;6.44;100.00;97305.72;5081020;28;20398;-74
2022/11/29 09:48:22;;;;;;;72.75;18.05;;;7.50;99.90;;;6.49;100.00;97311.06;5089789;28;20413;-74
2022/11/29 09:50:56;;;;;;;70.10;17.50;;;7.50;99.90;;;6.51;100.00;97303.78;5089364;28;20398;-74
2022/11/29 09:53:42;;;;;;;62.83;17.37;;;7.60;99.90;;;6.53;100.00;97310.41;5088976;28;20449;-74
2022/11/29 09:56:22;;;;;;;64.68;18.00;;;7.60;99.90;;;6.59;100.00;97308.69;5088205;28;20418;-75
2022/11/29 09:58:56;;;;;;;62.60;17.10;;;7.60;99.90;;;6.61;100.00;97312.69;5089466;28;20400;-74
2022/11/29 10:01:27;;;;;;;47.50;15.02;;;7.70;99.90;;;6.63;100.00;97311.66;5089261;28;20406;-74
2022/11/29 10:03:59;;;;;;;60.85;16.10;;;7.70;99.90;;;6.57;100.00;97308.91;5088614;28;20476;-79
2022/11/29 10:06:30;;;;;;;76.03;16.37;;;7.60;99.90;;;6.57;100.00;97316.81;5089517;28;20402;-72
2022/11/29 10:09:07;;;;;;;70.30;18.53;;;7.60;99.90;;;6.59;100.00;97319.22;5089526;28;20395;-80
2022/11/29 10:11:42;;;;;;;75.15;18.27;;;7.60;99.90;;;6.60;100.00;97311.09;5089324;28;20394;-75
2022/11/29 10:14:32;;;;;;;80.18;18.65;;;7.60;99.90;;;6.55;100.00;97316.22;5104346;28;20402;-76
2022/11/29 10:17:30;;;;;;;66.03;17.17;;;7.60;99.90;;;6.56;100.00;97317.03;5089603;28;20560;-75
2022/11/29 10:20:08;;;;;;;68.22;17.85;;;7.60;99.90;;;6.56;100.00;97311.78;5089278;28;20447;-75
2022/11/29 10:22:52;;;;;;;84.90;19.38;;;7.60;99.90;;;6.53;100.00;97312.25;5105271;28;20417;-73
2022/11/29 10:25:27;;;;;;;86.63;18.63;;;7.60;99.90;;;6.49;100.00;97311.06;5089151;28;20402;-76
2022/11/29 10:27:53;;;;;;;82.15;18.42;;;7.60;99.90;;;6.50;100.00;97313.50;5089380;28;20482;-74
2022/11/29 10:30:20;;;;;;;71.53;18.13;;;7.60;99.90;;;6.52;100.00;97311.44;5087840;28;20444;-74
2022/11/29 10:32:54;;;;;;;77.35;17.70;;;7.50;99.90;;;6.50;100.00;97318.75;5088416;28;20447;-74
2022/11/29 10:35:22;;;;;;;71.60;17.52;;;7.60;99.90;;;6.50;100.00;97308.22;5089199;28;20397;-74
2022/11/29 10:37:52;;;;;;;60.00;15.15;;;7.60;99.90;;;6.48;100.00;97312.91;5089095;28;20933;-75
2022/11/29 10:40:24;;;;;;;54.38;15.63;;;7.60;99.90;;;6.54;100.00;97311.22;5085694;28;20409;-74
2022/11/29 10:42:54;;;;;;;69.13;17.27;;;7.60;99.90;;;6.53;100.00;97310.41;5087276;28;20406;-74
2022/11/29 10:45:26;;;;;;;84.63;18.63;;;7.60;99.90;;;6.52;100.00;97313.25;5087600;28;20756;-74
2022/11/29 10:48:00;;;;;;;94.35;20.15;;;7.60;99.90;;;6.50;100.00;97310.84;5089163;28;20416;-74
2022/11/29 10:50:30;;;;;;;102.25;21.50;;;7.50;99.90;;;6.52;100.00;97308.00;5091097;28;20433;-74
2022/11/29 10:53:03;;;;;;;112.40;23.52;;;7.60;99.90;;;6.52;100.00;97308.00;5092252;28;20397;-76